sensor_id;sensor_type;location;lat;lon;timestamp;P1;durP1;ratioP1;P2;durP2;ratioP2
11791;SDS011;5953;52.372;9.918;2022-07-22T00:01:36;6.70;;;6.00;;
11791;SDS011;5953;52.372;9.918;2022-07-22T00:04:04;5.97;;;5.47;;
11791;SDS011;5953;52.372;9.918;2022-07-22T00:06:32;6.27;;;5.67;;
11791;SDS011;5953;52.372;9.918;2022-07-22T00:09:02;5.77;;;5.27;;
11791;SDS011;5953;52.372;9.918;2022-07-22T00:11:31;6.30;;;5.80;;
11791;SDS011;5953;52.372;9.918;2022-07-22T00:13:59;6.50;;;5.90;;
11791;SDS011;5953;52.372;9.918;2022-07-22T00:16:26;6.20;;;5.70;;
11791;SDS011;5953;52.372;9.918;2022-07-22T00:18:54;6.30;;;5.80;;
11791;SDS011;5953;52.372;9.918;2022-07-22T00:21:23;6.13;;;5.63;;
11791;SDS011;5953;52.372;9.918;2022-07-22T00:23:51;5.90;;;5.30;;
11791;SDS011;5953;52.372;9.918;2022-07-22T00:26:20;6.10;;;5.60;;
11791;SDS011;5953;52.372;9.918;2022-07-22T00:28:48;6.27;;;5.40;;
11791;SDS011;5953;52.372;9.918;2022-07-22T00:31:16;6.53;;;5.47;;
11791;SDS011;5953;52.372;9.918;2022-07-22T00:33:44;6.37;;;5.87;;
11791;SDS011;5953;52.372;9.918;2022-07-22T00:36:12;5.70;;;5.10;;
11791;SDS011;5953;52.372;9.918;2022-07-22T00:38:40;7.00;;;6.40;;
11791;SDS011;5953;52.372;9.918;2022-07-22T00:41:08;6.40;;;5.67;;
11791;SDS011;5953;52.372;9.918;2022-07-22T00:43:50;5.93;;;5.53;;
11791;SDS011;5953;52.372;9.918;2022-07-22T00:46:21;6.67;;;6.17;;
11791;SDS011;5953;52.372;9.918;2022-07-22T00:48:50;6.67;;;6.13;;
11791;SDS011;5953;52.372;9.918;2022-07-22T00:51:19;7.00;;;6.40;;
11791;SDS011;5953;52.372;9.918;2022-07-22T00:53:47;7.03;;;6.43;;
11791;SDS011;5953;52.372;9.918;2022-07-22T00:56:16;7.77;;;6.60;;
11791;SDS011;5953;52.372;9.918;2022-07-22T00:58:45;7.60;;;6.70;;
11791;SDS011;5953;52.372;9.918;2022-07-22T01:01:16;6.87;;;6.20;;
11791;SDS011;5953;52.372;9.918;2022-07-22T01:03:44;7.07;;;6.47;;
11791;SDS011;5953;52.372;9.918;2022-07-22T01:06:16;7.23;;;6.60;;
11791;SDS011;5953;52.372;9.918;2022-07-22T01:08:44;7.57;;;6.93;;
11791;SDS011;5953;52.372;9.918;2022-07-22T01:11:13;6.67;;;6.07;;
11791;SDS011;5953;52.372;9.918;2022-07-22T01:13:42;8.27;;;7.50;;
11791;SDS011;5953;52.372;9.918;2022-07-22T01:16:12;7.93;;;7.33;;
11791;SDS011;5953;52.372;9.918;2022-07-22T01:18:43;8.53;;;7.37;;
11791;SDS011;5953;52.372;9.918;2022-07-22T01:21:13;7.57;;;6.47;;
11791;SDS011;5953;52.372;9.918;2022-07-22T01:23:42;7.37;;;6.67;;
11791;SDS011;5953;52.372;9.918;2022-07-22T01:26:10;7.57;;;6.87;;
11791;SDS011;5953;52.372;9.918;2022-07-22T01:28:38;7.40;;;6.70;;
11791;SDS011;5953;52.372;9.918;2022-07-22T01:31:06;8.53;;;7.73;;
11791;SDS011;5953;52.372;9.918;2022-07-22T01:33:35;8.47;;;7.00;;
11791;SDS011;5953;52.372;9.918;2022-07-22T01:36:03;7.60;;;7.00;;
11791;SDS011;5953;52.372;9.918;2022-07-22T01:38:33;8.27;;;7.47;;
11791;SDS011;5953;52.372;9.918;2022-07-22T01:41:01;7.40;;;6.80;;
11791;SDS011;5953;52.372;9.918;2022-07-22T01:43:29;7.83;;;7.07;;
11791;SDS011;5953;52.372;9.918;2022-07-22T01:45:57;8.03;;;7.27;;
11791;SDS011;5953;52.372;9.918;2022-07-22T01:48:26;7.07;;;6.50;;
11791;SDS011;5953;52.372;9.918;2022-07-22T01:50:54;10.07;;;9.17;;
11791;SDS011;5953;52.372;9.918;2022-07-22T01:53:22;8.30;;;7.60;;
11791;SDS011;5953;52.372;9.918;2022-07-22T01:55:52;9.97;;;9.10;;
11791;SDS011;5953;52.372;9.918;2022-07-22T01:58:20;9.77;;;8.97;;
11791;SDS011;5953;52.372;9.918;2022-07-22T02:00:48;11.00;;;9.83;;
11791;SDS011;5953;52.372;9.918;2022-07-22T02:03:16;10.47;;;9.57;;
11791;SDS011;5953;52.372;9.918;2022-07-22T02:05:44;10.00;;;9.20;;
11791;SDS011;5953;52.372;9.918;2022-07-22T02:08:12;11.40;;;10.40;;
11791;SDS011;5953;52.372;9.918;2022-07-22T02:10:40;11.40;;;10.43;;
11791;SDS011;5953;52.372;9.918;2022-07-22T02:13:09;12.17;;;10.43;;
11791;SDS011;5953;52.372;9.918;2022-07-22T02:15:37;11.63;;;10.53;;
11791;SDS011;5953;52.372;9.918;2022-07-22T02:18:11;11.67;;;10.57;;
11791;SDS011;5953;52.372;9.918;2022-07-22T02:20:41;10.83;;;9.73;;
11791;SDS011;5953;52.372;9.918;2022-07-22T02:23:09;11.63;;;10.50;;
11791;SDS011;5953;52.372;9.918;2022-07-22T02:25:38;10.73;;;9.80;;
11791;SDS011;5953;52.372;9.918;2022-07-22T02:28:07;9.93;;;9.13;;
11791;SDS011;5953;52.372;9.918;2022-07-22T02:30:36;8.37;;;7.67;;
11791;SDS011;5953;52.372;9.918;2022-07-22T02:33:04;7.80;;;7.00;;
11791;SDS011;5953;52.372;9.918;2022-07-22T02:35:34;6.37;;;5.77;;
11791;SDS011;5953;52.372;9.918;2022-07-22T02:38:02;5.53;;;5.03;;
11791;SDS011;5953;52.372;9.918;2022-07-22T02:40:30;5.00;;;4.50;;
11791;SDS011;5953;52.372;9.918;2022-07-22T02:42:58;5.27;;;4.53;;
11791;SDS011;5953;52.372;9.918;2022-07-22T02:45:27;6.33;;;4.40;;
11791;SDS011;5953;52.372;9.918;2022-07-22T02:47:56;4.60;;;4.20;;
11791;SDS011;5953;52.372;9.918;2022-07-22T02:50:25;4.80;;;4.30;;
11791;SDS011;5953;52.372;9.918;2022-07-22T02:52:53;5.97;;;5.30;;
11791;SDS011;5953;52.372;9.918;2022-07-22T02:55:21;8.23;;;5.07;;
11791;SDS011;5953;52.372;9.918;2022-07-22T02:57:49;7.80;;;5.90;;
11791;SDS011;5953;52.372;9.918;2022-07-22T03:00:17;7.50;;;6.70;;
11791;SDS011;5953;52.372;9.918;2022-07-22T03:02:46;7.97;;;6.93;;
11791;SDS011;5953;52.372;9.918;2022-07-22T03:05:15;8.03;;;7.00;;
11791;SDS011;5953;52.372;9.918;2022-07-22T03:07:43;8.30;;;6.13;;
11791;SDS011;5953;52.372;9.918;2022-07-22T03:10:11;7.07;;;5.27;;
11791;SDS011;5953;52.372;9.918;2022-07-22T03:12:39;7.13;;;5.00;;
11791;SDS011;5953;52.372;9.918;2022-07-22T03:15:07;7.27;;;5.30;;
11791;SDS011;5953;52.372;9.918;2022-07-22T03:17:35;5.07;;;4.57;;
11791;SDS011;5953;52.372;9.918;2022-07-22T03:20:04;6.13;;;4.63;;
11791;SDS011;5953;52.372;9.918;2022-07-22T03:22:35;5.70;;;5.17;;
11791;SDS011;5953;52.372;9.918;2022-07-22T03:25:04;7.97;;;6.43;;
11791;SDS011;5953;52.372;9.918;2022-07-22T03:27:32;6.73;;;5.87;;
11791;SDS011;5953;52.372;9.918;2022-07-22T03:30:00;6.33;;;5.60;;
11791;SDS011;5953;52.372;9.918;2022-07-22T03:32:28;7.37;;;5.20;;
11791;SDS011;5953;52.372;9.918;2022-07-22T03:34:56;5.80;;;5.07;;
11791;SDS011;5953;52.372;9.918;2022-07-22T03:37:30;6.60;;;5.43;;
11791;SDS011;5953;52.372;9.918;2022-07-22T03:39:59;6.63;;;5.27;;
11791;SDS011;5953;52.372;9.918;2022-07-22T03:42:27;5.83;;;5.27;;
11791;SDS011;5953;52.372;9.918;2022-07-22T03:44:55;4.97;;;4.57;;
11791;SDS011;5953;52.372;9.918;2022-07-22T03:47:23;5.53;;;4.83;;
11791;SDS011;5953;52.372;9.918;2022-07-22T03:49:51;5.03;;;4.63;;
11791;SDS011;5953;52.372;9.918;2022-07-22T03:52:19;6.50;;;4.33;;
11791;SDS011;5953;52.372;9.918;2022-07-22T03:54:47;5.33;;;4.83;;
11791;SDS011;5953;52.372;9.918;2022-07-22T03:57:16;5.67;;;5.00;;
11791;SDS011;5953;52.372;9.918;2022-07-22T03:59:45;7.73;;;5.07;;
11791;SDS011;5953;52.372;9.918;2022-07-22T04:02:13;8.17;;;5.23;;
11791;SDS011;5953;52.372;9.918;2022-07-22T04:04:41;5.00;;;4.60;;
11791;SDS011;5953;52.372;9.918;2022-07-22T04:07:09;5.83;;;4.90;;
11791;SDS011;5953;52.372;9.918;2022-07-22T04:09:37;5.23;;;4.80;;
11791;SDS011;5953;52.372;9.918;2022-07-22T04:12:05;4.77;;;4.07;;
11791;SDS011;5953;52.372;9.918;2022-07-22T04:14:35;5.17;;;4.67;;
11791;SDS011;5953;52.372;9.918;2022-07-22T04:17:03;5.20;;;4.60;;
11791;SDS011;5953;52.372;9.918;2022-07-22T04:19:31;6.47;;;4.73;;
11791;SDS011;5953;52.372;9.918;2022-07-22T04:21:58;7.07;;;4.83;;
11791;SDS011;5953;52.372;9.918;2022-07-22T04:24:26;4.23;;;3.83;;
11791;SDS011;5953;52.372;9.918;2022-07-22T04:26:54;6.50;;;4.07;;
11791;SDS011;5953;52.372;9.918;2022-07-22T04:29:22;5.97;;;5.07;;
11791;SDS011;5953;52.372;9.918;2022-07-22T04:31:51;5.33;;;4.43;;
11791;SDS011;5953;52.372;9.918;2022-07-22T04:34:25;6.60;;;4.50;;
11791;SDS011;5953;52.372;9.918;2022-07-22T04:36:53;4.83;;;4.43;;
11791;SDS011;5953;52.372;9.918;2022-07-22T04:39:20;5.03;;;4.33;;
11791;SDS011;5953;52.372;9.918;2022-07-22T04:41:48;7.90;;;4.93;;
11791;SDS011;5953;52.372;9.918;2022-07-22T04:44:16;4.80;;;4.30;;
11791;SDS011;5953;52.372;9.918;2022-07-22T04:46:44;5.07;;;4.57;;
11791;SDS011;5953;52.372;9.918;2022-07-22T04:49:13;4.33;;;3.93;;
11791;SDS011;5953;52.372;9.918;2022-07-22T04:51:41;5.57;;;4.00;;
11791;SDS011;5953;52.372;9.918;2022-07-22T04:54:10;6.07;;;4.30;;
11791;SDS011;5953;52.372;9.918;2022-07-22T04:56:38;4.83;;;4.17;;
11791;SDS011;5953;52.372;9.918;2022-07-22T04:59:06;4.33;;;3.93;;
11791;SDS011;5953;52.372;9.918;2022-07-22T05:01:34;4.30;;;3.90;;
11791;SDS011;5953;52.372;9.918;2022-07-22T05:04:03;5.33;;;4.27;;
11791;SDS011;5953;52.372;9.918;2022-07-22T05:06:33;4.77;;;4.27;;
11791;SDS011;5953;52.372;9.918;2022-07-22T05:09:00;6.57;;;4.90;;
11791;SDS011;5953;52.372;9.918;2022-07-22T05:11:28;5.43;;;4.93;;
11791;SDS011;5953;52.372;9.918;2022-07-22T05:13:56;5.80;;;5.30;;
11791;SDS011;5953;52.372;9.918;2022-07-22T05:16:24;7.43;;;4.83;;
11791;SDS011;5953;52.372;9.918;2022-07-22T05:18:52;6.37;;;5.10;;
11791;SDS011;5953;52.372;9.918;2022-07-22T05:21:20;6.23;;;4.60;;
11791;SDS011;5953;52.372;9.918;2022-07-22T05:23:49;5.17;;;4.67;;
11791;SDS011;5953;52.372;9.918;2022-07-22T05:26:17;5.27;;;4.73;;
11791;SDS011;5953;52.372;9.918;2022-07-22T05:28:45;5.47;;;4.63;;
11791;SDS011;5953;52.372;9.918;2022-07-22T05:31:13;5.13;;;3.80;;
11791;SDS011;5953;52.372;9.918;2022-07-22T05:33:41;7.73;;;4.10;;
11791;SDS011;5953;52.372;9.918;2022-07-22T05:36:09;5.63;;;4.40;;
11791;SDS011;5953;52.372;9.918;2022-07-22T05:38:36;4.40;;;4.03;;
11791;SDS011;5953;52.372;9.918;2022-07-22T05:41:06;4.57;;;4.23;;
11791;SDS011;5953;52.372;9.918;2022-07-22T05:43:34;3.77;;;3.47;;
11791;SDS011;5953;52.372;9.918;2022-07-22T05:46:02;6.13;;;4.13;;
11791;SDS011;5953;52.372;9.918;2022-07-22T05:48:30;4.60;;;3.70;;
11791;SDS011;5953;52.372;9.918;2022-07-22T05:50:57;4.73;;;4.03;;
11791;SDS011;5953;52.372;9.918;2022-07-22T05:53:25;5.30;;;3.70;;
11791;SDS011;5953;52.372;9.918;2022-07-22T05:55:53;5.47;;;3.80;;
11791;SDS011;5953;52.372;9.918;2022-07-22T05:58:25;4.83;;;4.30;;
11791;SDS011;5953;52.372;9.918;2022-07-22T06:00:53;5.00;;;3.97;;
11791;SDS011;5953;52.372;9.918;2022-07-22T06:03:22;5.23;;;4.70;;
11791;SDS011;5953;52.372;9.918;2022-07-22T06:05:49;5.70;;;4.63;;
11791;SDS011;5953;52.372;9.918;2022-07-22T06:08:18;6.83;;;4.80;;
11791;SDS011;5953;52.372;9.918;2022-07-22T06:10:46;5.63;;;4.33;;
11791;SDS011;5953;52.372;9.918;2022-07-22T06:13:14;6.27;;;4.47;;
11791;SDS011;5953;52.372;9.918;2022-07-22T06:15:43;8.23;;;5.10;;
11791;SDS011;5953;52.372;9.918;2022-07-22T06:18:11;5.17;;;3.93;;
11791;SDS011;5953;52.372;9.918;2022-07-22T06:20:39;5.57;;;4.77;;
11791;SDS011;5953;52.372;9.918;2022-07-22T06:23:07;5.37;;;4.13;;
11791;SDS011;5953;52.372;9.918;2022-07-22T06:25:35;5.20;;;3.97;;
11791;SDS011;5953;52.372;9.918;2022-07-22T06:28:08;4.17;;;3.77;;
11791;SDS011;5953;52.372;9.918;2022-07-22T06:30:36;4.50;;;4.10;;
11791;SDS011;5953;52.372;9.918;2022-07-22T06:33:07;4.10;;;3.63;;
11791;SDS011;5953;52.372;9.918;2022-07-22T06:35:37;6.07;;;4.03;;
11791;SDS011;5953;52.372;9.918;2022-07-22T06:38:06;4.70;;;3.97;;
11791;SDS011;5953;52.372;9.918;2022-07-22T06:40:44;5.23;;;3.80;;
11791;SDS011;5953;52.372;9.918;2022-07-22T06:43:12;4.77;;;4.13;;
11791;SDS011;5953;52.372;9.918;2022-07-22T06:45:40;5.00;;;4.20;;
11791;SDS011;5953;52.372;9.918;2022-07-22T06:48:09;4.70;;;4.23;;
11791;SDS011;5953;52.372;9.918;2022-07-22T06:50:37;4.07;;;3.63;;
11791;SDS011;5953;52.372;9.918;2022-07-22T06:53:04;5.17;;;4.00;;
11791;SDS011;5953;52.372;9.918;2022-07-22T06:55:32;6.03;;;3.37;;
11791;SDS011;5953;52.372;9.918;2022-07-22T06:58:00;3.77;;;3.27;;
11791;SDS011;5953;52.372;9.918;2022-07-22T07:00:28;3.53;;;3.13;;
11791;SDS011;5953;52.372;9.918;2022-07-22T07:02:57;4.03;;;3.43;;
11791;SDS011;5953;52.372;9.918;2022-07-22T07:05:47;6.10;;;3.30;;
11791;SDS011;5953;52.372;9.918;2022-07-22T07:08:15;4.87;;;2.90;;
11791;SDS011;5953;52.372;9.918;2022-07-22T07:10:44;6.70;;;3.80;;
11791;SDS011;5953;52.372;9.918;2022-07-22T07:13:12;5.43;;;3.10;;
11791;SDS011;5953;52.372;9.918;2022-07-22T07:15:40;12.10;;;5.00;;
11791;SDS011;5953;52.372;9.918;2022-07-22T07:18:08;4.80;;;3.40;;
11791;SDS011;5953;52.372;9.918;2022-07-22T07:20:36;3.80;;;3.43;;
11791;SDS011;5953;52.372;9.918;2022-07-22T07:23:06;4.80;;;3.40;;
11791;SDS011;5953;52.372;9.918;2022-07-22T07:25:34;5.53;;;3.73;;
11791;SDS011;5953;52.372;9.918;2022-07-22T07:28:02;4.77;;;2.90;;
11791;SDS011;5953;52.372;9.918;2022-07-22T07:30:31;5.67;;;3.93;;
11791;SDS011;5953;52.372;9.918;2022-07-22T07:32:59;8.03;;;4.37;;
11791;SDS011;5953;52.372;9.918;2022-07-22T07:35:28;5.20;;;3.77;;
11791;SDS011;5953;52.372;9.918;2022-07-22T07:37:57;4.80;;;3.50;;
11791;SDS011;5953;52.372;9.918;2022-07-22T07:40:26;6.10;;;4.33;;
11791;SDS011;5953;52.372;9.918;2022-07-22T07:42:54;4.63;;;3.70;;
11791;SDS011;5953;52.372;9.918;2022-07-22T07:45:29;6.20;;;3.53;;
11791;SDS011;5953;52.372;9.918;2022-07-22T07:47:58;4.70;;;3.77;;
11791;SDS011;5953;52.372;9.918;2022-07-22T07:50:26;4.00;;;3.57;;
11791;SDS011;5953;52.372;9.918;2022-07-22T07:52:54;6.60;;;3.63;;
11791;SDS011;5953;52.372;9.918;2022-07-22T07:55:22;4.77;;;3.67;;
11791;SDS011;5953;52.372;9.918;2022-07-22T07:57:52;5.17;;;3.57;;
11791;SDS011;5953;52.372;9.918;2022-07-22T08:00:21;4.43;;;3.67;;
11791;SDS011;5953;52.372;9.918;2022-07-22T08:02:50;5.70;;;3.67;;
11791;SDS011;5953;52.372;9.918;2022-07-22T08:05:18;9.37;;;5.33;;
11791;SDS011;5953;52.372;9.918;2022-07-22T08:07:48;6.43;;;5.23;;
11791;SDS011;5953;52.372;9.918;2022-07-22T08:10:16;7.10;;;5.63;;
11791;SDS011;5953;52.372;9.918;2022-07-22T08:13:06;8.30;;;6.67;;
11791;SDS011;5953;52.372;9.918;2022-07-22T08:15:35;10.77;;;8.70;;
11791;SDS011;5953;52.372;9.918;2022-07-22T08:18:03;9.33;;;7.53;;
11791;SDS011;5953;52.372;9.918;2022-07-22T08:20:31;8.47;;;7.33;;
11791;SDS011;5953;52.372;9.918;2022-07-22T08:22:59;10.33;;;8.17;;
11791;SDS011;5953;52.372;9.918;2022-07-22T08:25:27;11.23;;;8.97;;
11791;SDS011;5953;52.372;9.918;2022-07-22T08:27:55;9.63;;;7.67;;
11791;SDS011;5953;52.372;9.918;2022-07-22T08:30:25;7.67;;;6.87;;
11791;SDS011;5953;52.372;9.918;2022-07-22T08:32:54;7.10;;;6.40;;
11791;SDS011;5953;52.372;9.918;2022-07-22T08:35:23;7.80;;;6.10;;
11791;SDS011;5953;52.372;9.918;2022-07-22T08:37:51;7.60;;;5.70;;
11791;SDS011;5953;52.372;9.918;2022-07-22T08:40:20;4.30;;;3.90;;
11791;SDS011;5953;52.372;9.918;2022-07-22T08:42:48;8.03;;;4.60;;
11791;SDS011;5953;52.372;9.918;2022-07-22T08:45:17;5.17;;;3.83;;
11791;SDS011;5953;52.372;9.918;2022-07-22T08:47:49;3.73;;;3.30;;
11791;SDS011;5953;52.372;9.918;2022-07-22T08:50:18;6.13;;;3.77;;
11791;SDS011;5953;52.372;9.918;2022-07-22T08:52:47;7.17;;;3.50;;
11791;SDS011;5953;52.372;9.918;2022-07-22T08:55:15;3.63;;;3.30;;
11791;SDS011;5953;52.372;9.918;2022-07-22T08:57:44;2.77;;;2.57;;
11791;SDS011;5953;52.372;9.918;2022-07-22T09:00:14;4.60;;;3.23;;
11791;SDS011;5953;52.372;9.918;2022-07-22T09:02:44;4.07;;;3.00;;
11791;SDS011;5953;52.372;9.918;2022-07-22T09:05:13;3.57;;;3.10;;
11791;SDS011;5953;52.372;9.918;2022-07-22T09:08:02;4.97;;;3.60;;
11791;SDS011;5953;52.372;9.918;2022-07-22T09:10:31;4.43;;;3.00;;
11791;SDS011;5953;52.372;9.918;2022-07-22T09:13:00;4.27;;;2.73;;
11791;SDS011;5953;52.372;9.918;2022-07-22T09:15:31;4.07;;;2.70;;
11791;SDS011;5953;52.372;9.918;2022-07-22T09:18:03;7.53;;;2.70;;
11791;SDS011;5953;52.372;9.918;2022-07-22T09:20:34;3.50;;;2.23;;
11791;SDS011;5953;52.372;9.918;2022-07-22T09:23:08;5.97;;;2.63;;
11791;SDS011;5953;52.372;9.918;2022-07-22T09:25:37;6.57;;;2.60;;
11791;SDS011;5953;52.372;9.918;2022-07-22T09:28:10;3.50;;;1.80;;
11791;SDS011;5953;52.372;9.918;2022-07-22T09:30:45;3.40;;;2.43;;
11791;SDS011;5953;52.372;9.918;2022-07-22T09:33:17;5.83;;;2.67;;
11791;SDS011;5953;52.372;9.918;2022-07-22T09:35:47;5.70;;;2.50;;
11791;SDS011;5953;52.372;9.918;2022-07-22T09:38:17;6.00;;;2.67;;
11791;SDS011;5953;52.372;9.918;2022-07-22T09:40:47;3.10;;;2.33;;
11791;SDS011;5953;52.372;9.918;2022-07-22T09:43:16;3.77;;;2.43;;
11791;SDS011;5953;52.372;9.918;2022-07-22T09:45:47;3.70;;;2.50;;
11791;SDS011;5953;52.372;9.918;2022-07-22T09:48:16;5.03;;;2.53;;
11791;SDS011;5953;52.372;9.918;2022-07-22T09:50:45;5.03;;;2.30;;
11791;SDS011;5953;52.372;9.918;2022-07-22T09:53:16;4.20;;;2.17;;
11791;SDS011;5953;52.372;9.918;2022-07-22T09:55:45;2.60;;;2.10;;
11791;SDS011;5953;52.372;9.918;2022-07-22T09:58:14;4.97;;;2.57;;
11791;SDS011;5953;52.372;9.918;2022-07-22T10:00:43;4.53;;;2.80;;
11791;SDS011;5953;52.372;9.918;2022-07-22T10:03:12;5.13;;;2.67;;
11791;SDS011;5953;52.372;9.918;2022-07-22T10:05:43;6.20;;;2.80;;
11791;SDS011;5953;52.372;9.918;2022-07-22T10:08:12;5.50;;;3.13;;
11791;SDS011;5953;52.372;9.918;2022-07-22T10:10:41;8.07;;;4.20;;
11791;SDS011;5953;52.372;9.918;2022-07-22T10:13:08;7.07;;;4.00;;
11791;SDS011;5953;52.372;9.918;2022-07-22T10:15:37;5.33;;;3.47;;
11791;SDS011;5953;52.372;9.918;2022-07-22T10:18:06;6.63;;;3.80;;
11791;SDS011;5953;52.372;9.918;2022-07-22T10:20:36;4.67;;;3.77;;
11791;SDS011;5953;52.372;9.918;2022-07-22T10:23:05;4.07;;;3.20;;
11791;SDS011;5953;52.372;9.918;2022-07-22T10:25:50;5.87;;;3.47;;
11791;SDS011;5953;52.372;9.918;2022-07-22T10:28:20;5.73;;;3.53;;
11791;SDS011;5953;52.372;9.918;2022-07-22T10:30:49;8.10;;;3.50;;
11791;SDS011;5953;52.372;9.918;2022-07-22T10:33:18;6.63;;;3.50;;
11791;SDS011;5953;52.372;9.918;2022-07-22T10:35:55;8.00;;;3.47;;
11791;SDS011;5953;52.372;9.918;2022-07-22T10:38:26;6.17;;;3.20;;
11791;SDS011;5953;52.372;9.918;2022-07-22T10:40:57;5.37;;;3.53;;
11791;SDS011;5953;52.372;9.918;2022-07-22T10:43:27;5.57;;;3.40;;
11791;SDS011;5953;52.372;9.918;2022-07-22T10:45:56;5.30;;;3.90;;
11791;SDS011;5953;52.372;9.918;2022-07-22T10:48:25;6.00;;;3.27;;
11791;SDS011;5953;52.372;9.918;2022-07-22T10:51:14;4.37;;;3.97;;
11791;SDS011;5953;52.372;9.918;2022-07-22T10:53:43;4.93;;;3.50;;
11791;SDS011;5953;52.372;9.918;2022-07-22T10:56:23;4.67;;;3.30;;
11791;SDS011;5953;52.372;9.918;2022-07-22T10:58:57;3.37;;;2.67;;
11791;SDS011;5953;52.372;9.918;2022-07-22T11:01:27;3.23;;;2.80;;
11791;SDS011;5953;52.372;9.918;2022-07-22T11:04:07;3.13;;;2.73;;
11791;SDS011;5953;52.372;9.918;2022-07-22T11:06:44;5.53;;;3.10;;
11791;SDS011;5953;52.372;9.918;2022-07-22T11:09:13;5.03;;;3.00;;
11791;SDS011;5953;52.372;9.918;2022-07-22T11:11:44;6.80;;;2.80;;
11791;SDS011;5953;52.372;9.918;2022-07-22T11:14:14;3.63;;;2.53;;
11791;SDS011;5953;52.372;9.918;2022-07-22T11:16:44;3.27;;;2.50;;
11791;SDS011;5953;52.372;9.918;2022-07-22T11:19:13;5.00;;;2.30;;
11791;SDS011;5953;52.372;9.918;2022-07-22T11:21:41;4.30;;;2.93;;
11791;SDS011;5953;52.372;9.918;2022-07-22T11:24:11;4.13;;;3.07;;
11791;SDS011;5953;52.372;9.918;2022-07-22T11:26:40;4.47;;;3.20;;
11791;SDS011;5953;52.372;9.918;2022-07-22T11:29:15;4.67;;;2.77;;
11791;SDS011;5953;52.372;9.918;2022-07-22T11:31:44;4.97;;;3.63;;
11791;SDS011;5953;52.372;9.918;2022-07-22T11:34:12;8.23;;;4.57;;
11791;SDS011;5953;52.372;9.918;2022-07-22T11:36:42;7.17;;;5.07;;
11791;SDS011;5953;52.372;9.918;2022-07-22T11:39:12;7.30;;;5.30;;
11791;SDS011;5953;52.372;9.918;2022-07-22T11:41:41;6.83;;;6.17;;
11791;SDS011;5953;52.372;9.918;2022-07-22T11:44:09;7.67;;;4.73;;
11791;SDS011;5953;52.372;9.918;2022-07-22T11:46:39;7.80;;;4.80;;
11791;SDS011;5953;52.372;9.918;2022-07-22T11:49:09;5.20;;;4.00;;
11791;SDS011;5953;52.372;9.918;2022-07-22T11:51:37;8.60;;;4.67;;
11791;SDS011;5953;52.372;9.918;2022-07-22T11:54:05;4.70;;;4.30;;
11791;SDS011;5953;52.372;9.918;2022-07-22T11:56:34;8.43;;;3.87;;
11791;SDS011;5953;52.372;9.918;2022-07-22T11:59:03;5.03;;;3.20;;
11791;SDS011;5953;52.372;9.918;2022-07-22T12:01:32;6.53;;;3.23;;
11791;SDS011;5953;52.372;9.918;2022-07-22T12:04:04;4.10;;;3.20;;
11791;SDS011;5953;52.372;9.918;2022-07-22T12:06:33;10.27;;;3.50;;
11791;SDS011;5953;52.372;9.918;2022-07-22T12:09:05;5.50;;;3.10;;
11791;SDS011;5953;52.372;9.918;2022-07-22T12:11:35;4.03;;;2.77;;
11791;SDS011;5953;52.372;9.918;2022-07-22T12:14:05;5.40;;;3.33;;
11791;SDS011;5953;52.372;9.918;2022-07-22T12:16:41;7.33;;;3.90;;
11791;SDS011;5953;52.372;9.918;2022-07-22T12:19:13;4.50;;;3.60;;
11791;SDS011;5953;52.372;9.918;2022-07-22T12:21:52;7.13;;;3.70;;
11791;SDS011;5953;52.372;9.918;2022-07-22T12:24:25;4.90;;;3.97;;
11791;SDS011;5953;52.372;9.918;2022-07-22T12:26:57;5.63;;;4.27;;
11791;SDS011;5953;52.372;9.918;2022-07-22T12:29:28;5.10;;;3.37;;
11791;SDS011;5953;52.372;9.918;2022-07-22T12:31:58;3.83;;;3.37;;
11791;SDS011;5953;52.372;9.918;2022-07-22T12:34:39;4.30;;;3.47;;
11791;SDS011;5953;52.372;9.918;2022-07-22T12:37:12;6.90;;;3.60;;
11791;SDS011;5953;52.372;9.918;2022-07-22T12:39:54;7.17;;;3.70;;
11791;SDS011;5953;52.372;9.918;2022-07-22T12:42:23;7.90;;;3.73;;
11791;SDS011;5953;52.372;9.918;2022-07-22T12:44:53;6.57;;;3.73;;
11791;SDS011;5953;52.372;9.918;2022-07-22T12:47:42;5.07;;;3.43;;
11791;SDS011;5953;52.372;9.918;2022-07-22T12:50:17;7.70;;;3.50;;
11791;SDS011;5953;52.372;9.918;2022-07-22T12:52:51;4.23;;;2.60;;
11791;SDS011;5953;52.372;9.918;2022-07-22T12:55:41;5.07;;;3.00;;
11791;SDS011;5953;52.372;9.918;2022-07-22T12:58:10;5.73;;;3.17;;
11791;SDS011;5953;52.372;9.918;2022-07-22T13:00:39;5.40;;;3.50;;
11791;SDS011;5953;52.372;9.918;2022-07-22T13:03:08;4.43;;;3.10;;
11791;SDS011;5953;52.372;9.918;2022-07-22T13:05:37;4.00;;;3.23;;
11791;SDS011;5953;52.372;9.918;2022-07-22T13:08:07;6.50;;;3.77;;
11791;SDS011;5953;52.372;9.918;2022-07-22T13:10:35;4.90;;;3.20;;
11791;SDS011;5953;52.372;9.918;2022-07-22T13:13:04;5.80;;;3.43;;
11791;SDS011;5953;52.372;9.918;2022-07-22T13:15:33;4.47;;;3.13;;
11791;SDS011;5953;52.372;9.918;2022-07-22T13:18:01;6.97;;;3.47;;
11791;SDS011;5953;52.372;9.918;2022-07-22T13:20:29;5.60;;;3.43;;
11791;SDS011;5953;52.372;9.918;2022-07-22T13:22:58;5.30;;;3.37;;
11791;SDS011;5953;52.372;9.918;2022-07-22T13:25:27;5.77;;;3.47;;
11791;SDS011;5953;52.372;9.918;2022-07-22T13:27:57;5.47;;;3.77;;
11791;SDS011;5953;52.372;9.918;2022-07-22T13:30:24;5.63;;;4.50;;
11791;SDS011;5953;52.372;9.918;2022-07-22T13:32:53;4.30;;;3.90;;
11791;SDS011;5953;52.372;9.918;2022-07-22T13:35:20;4.40;;;4.00;;
11791;SDS011;5953;52.372;9.918;2022-07-22T13:37:48;6.17;;;4.50;;
11791;SDS011;5953;52.372;9.918;2022-07-22T13:40:17;7.63;;;3.90;;
11791;SDS011;5953;52.372;9.918;2022-07-22T13:42:46;5.63;;;4.20;;
11791;SDS011;5953;52.372;9.918;2022-07-22T13:45:13;6.07;;;3.80;;
11791;SDS011;5953;52.372;9.918;2022-07-22T13:47:41;5.13;;;3.90;;
11791;SDS011;5953;52.372;9.918;2022-07-22T13:50:10;5.67;;;4.07;;
11791;SDS011;5953;52.372;9.918;2022-07-22T13:52:37;6.17;;;4.57;;
11791;SDS011;5953;52.372;9.918;2022-07-22T13:55:05;4.37;;;3.67;;
11791;SDS011;5953;52.372;9.918;2022-07-22T13:57:35;6.13;;;3.47;;
11791;SDS011;5953;52.372;9.918;2022-07-22T14:00:03;5.77;;;3.97;;
11791;SDS011;5953;52.372;9.918;2022-07-22T14:02:40;7.10;;;3.67;;
11791;SDS011;5953;52.372;9.918;2022-07-22T14:05:10;6.47;;;3.17;;
11791;SDS011;5953;52.372;9.918;2022-07-22T14:07:39;3.50;;;3.03;;
11791;SDS011;5953;52.372;9.918;2022-07-22T14:10:08;4.13;;;3.30;;
11791;SDS011;5953;52.372;9.918;2022-07-22T14:12:37;6.63;;;3.77;;
11791;SDS011;5953;52.372;9.918;2022-07-22T14:15:06;5.40;;;3.37;;
11791;SDS011;5953;52.372;9.918;2022-07-22T14:17:35;4.53;;;3.30;;
11791;SDS011;5953;52.372;9.918;2022-07-22T14:20:03;3.47;;;2.93;;
11791;SDS011;5953;52.372;9.918;2022-07-22T14:22:34;4.57;;;3.27;;
11791;SDS011;5953;52.372;9.918;2022-07-22T14:25:02;3.97;;;3.43;;
11791;SDS011;5953;52.372;9.918;2022-07-22T14:27:30;3.97;;;3.37;;
11791;SDS011;5953;52.372;9.918;2022-07-22T14:29:59;5.30;;;3.50;;
11791;SDS011;5953;52.372;9.918;2022-07-22T14:32:28;5.57;;;3.87;;
11791;SDS011;5953;52.372;9.918;2022-07-22T14:34:56;9.33;;;3.83;;
11791;SDS011;5953;52.372;9.918;2022-07-22T14:37:23;6.13;;;4.10;;
11791;SDS011;5953;52.372;9.918;2022-07-22T14:39:52;5.83;;;3.80;;
11791;SDS011;5953;52.372;9.918;2022-07-22T14:42:20;4.83;;;3.67;;
11791;SDS011;5953;52.372;9.918;2022-07-22T14:44:48;9.73;;;3.87;;
11791;SDS011;5953;52.372;9.918;2022-07-22T14:47:17;5.03;;;3.90;;
11791;SDS011;5953;52.372;9.918;2022-07-22T14:49:45;5.37;;;3.73;;
11791;SDS011;5953;52.372;9.918;2022-07-22T14:52:13;5.07;;;3.63;;
11791;SDS011;5953;52.372;9.918;2022-07-22T14:54:41;6.33;;;4.17;;
11791;SDS011;5953;52.372;9.918;2022-07-22T14:57:09;6.40;;;4.40;;
11791;SDS011;5953;52.372;9.918;2022-07-22T14:59:36;5.83;;;4.80;;
11791;SDS011;5953;52.372;9.918;2022-07-22T15:02:04;5.57;;;3.87;;
11791;SDS011;5953;52.372;9.918;2022-07-22T15:04:34;5.50;;;4.10;;
11791;SDS011;5953;52.372;9.918;2022-07-22T15:07:02;6.83;;;4.30;;
11791;SDS011;5953;52.372;9.918;2022-07-22T15:09:29;9.77;;;5.70;;
11791;SDS011;5953;52.372;9.918;2022-07-22T15:11:57;6.50;;;4.63;;
11791;SDS011;5953;52.372;9.918;2022-07-22T15:14:25;7.47;;;4.57;;